Time;durP1;ratioP1;P1;durP2;ratioP2;P2;SDS_P1;SDS_P2;PMS_P1;PMS_P2;Temp;Humidity;BMP_temperature;BMP_pressure;BME280_temperature;BME280_humidity;BME280_pressure;Samples;Min_cycle;Max_cycle;Signal;HPM_P1;HPM_P2
2022/08/12 00:43:42;;;;;;;10.80;10.00;;;;;;;15.76;52.48;101163.72;5013066;28;20056;-75
2022/08/12 00:48:51;;;;;;;9.55;8.80;;;;;;;15.72;52.76;101162.91;5010282;28;20088;-75
2022/08/12 00:51:18;;;;;;;9.32;8.60;;;;;;;15.68;52.91;101163.81;5012403;28;20065;-75
2022/08/12 00:53:43;;;;;;;9.88;9.07;;;;;;;15.64;52.60;101167.47;4995389;28;20092;-75
2022/08/12 00:56:09;;;;;;;9.02;8.23;;;;;;;15.56;53.17;101164.00;5012737;28;20025;-75
2022/08/12 00:58:36;;;;;;;9.50;8.70;;;;;;;15.51;53.15;101163.22;5012536;28;20046;-75
2022/08/12 01:01:05;;;;;;;10.48;9.50;;;;;;;15.45;53.87;101165.97;5012123;28;20044;-74
2022/08/12 01:11:53;;;;;;;8.80;8.20;;;;;;;15.27;53.84;101164.50;5012187;28;20068;-74
2022/08/12 01:14:22;;;;;;;9.57;8.60;;;;;;;15.26;54.22;101163.63;5012407;28;20037;-74
2022/08/12 01:16:49;;;;;;;10.38;9.43;;;;;;;15.20;54.64;101170.81;4994783;28;20117;-75
2022/08/12 01:19:17;;;;;;;9.63;8.73;;;;;;;15.11;54.82;101161.19;5012151;28;20037;-75
2022/08/12 01:22:01;;;;;;;9.90;9.10;;;;;;;15.10;54.56;101172.72;5012004;28;20042;-75
2022/08/12 01:24:26;;;;;;;9.75;9.05;;;;;;;15.05;55.02;101167.47;4991023;28;20041;-75
2022/08/12 01:26:54;;;;;;;11.05;8.20;;;;;;;15.04;54.83;101170.19;4994548;28;20046;-75
2022/08/12 01:29:25;;;;;;;9.70;9.00;;;;;;;15.05;55.03;101161.28;5012168;28;20062;-75
2022/08/12 01:31:53;;;;;;;9.43;8.70;;;;;;;15.02;54.50;101169.31;5011823;28;20048;-75
2022/08/12 01:34:26;;;;;;;8.98;8.27;;;;;;;14.94;54.54;101168.53;5008141;28;20034;-75
2022/08/12 01:36:56;;;;;;;8.45;7.85;;;;;;;14.86;55.16;101164.22;5011524;28;20057;-74
2022/08/12 01:39:28;;;;;;;9.52;8.15;;;;;;;14.77;55.01;101166.09;5011773;28;20052;-74
2022/08/12 01:41:57;;;;;;;9.38;8.68;;;;;;;14.71;55.39;101164.41;5008036;28;20439;-75
2022/08/12 01:44:26;;;;;;;8.98;8.25;;;;;;;14.66;55.45;101160.94;4994393;28;20069;-74
2022/08/12 01:47:13;;;;;;;8.90;8.10;;;;;;;14.71;55.38;101161.75;5011583;28;20408;-75
2022/08/12 01:50:01;;;;;;;9.23;8.45;;;;;;;14.69;55.67;101163.53;5009837;28;20120;-75
2022/08/12 01:52:55;;;;;;;9.43;8.25;;;;;;;14.63;56.09;101159.19;5009663;28;20120;-75
2022/08/12 01:55:28;;;;;;;10.25;9.25;;;;;;;14.56;55.74;101165.47;5010626;28;20034;-75
2022/08/12 01:58:17;;;;;;;8.80;8.02;;;;;;;14.52;56.57;101166.38;5008419;28;20046;-75
2022/08/12 02:00:54;;;;;;;9.57;8.80;;;;;;;14.51;56.43;101155.78;5008458;28;20057;-75
2022/08/12 02:12:34;;;;;;;;;;;;;;;14.39;57.95;101149.72;5011724;28;20124;-74
2022/08/12 02:15:23;;;;;;;8.45;7.82;;;;;;;14.42;56.77;101147.03;5011443;28;20395;-75
2022/08/12 02:18:07;;;;;;;8.77;8.07;;;;;;;14.40;56.80;101146.16;5009621;28;20057;-75
2022/08/12 02:20:45;;;;;;;8.20;7.60;;;;;;;14.43;56.57;101146.13;5008594;28;20077;-74
2022/08/12 02:23:11;;;;;;;8.80;8.10;;;;;;;14.45;56.26;101148.75;5011432;28;20049;-74
2022/08/12 02:25:42;;;;;;;8.80;8.00;;;;;;;14.46;56.19;101153.16;4993748;28;20038;-74
2022/08/12 02:28:08;;;;;;;8.80;8.10;;;;;;;14.46;56.37;101143.44;5011405;28;20127;-75
2022/08/12 02:30:36;;;;;;;9.70;8.63;;;;;;;14.47;56.01;101146.97;5011162;28;20134;-74
2022/08/12 02:33:03;;;;;;;9.13;8.43;;;;;;;14.42;56.49;101144.38;5011118;28;20115;-75
2022/08/12 02:35:31;;;;;;;9.30;8.50;;;;;;;14.40;56.62;101139.97;5007575;28;20042;-74
2022/08/12 02:38:00;;;;;;;9.35;8.20;;;;;;;14.30;57.32;101139.19;5011204;28;20058;-74
2022/08/12 02:40:28;;;;;;;9.27;8.57;;;;;;;14.23;57.24;101140.19;5013771;28;20128;-74
2022/08/12 02:43:27;;;;;;;9.27;8.55;;;;;;;14.24;57.96;101145.47;5014972;28;20121;-75
2022/08/12 02:45:59;;;;;;;9.70;9.00;;;;;;;14.28;57.56;101141.00;5011999;28;20045;-74
2022/08/12 02:48:32;;;;;;;11.93;9.32;;;;;;;14.30;57.63;101147.16;5015128;28;20096;-74
2022/08/12 02:51:08;;;;;;;8.43;7.70;;;;;;;14.29;57.55;101141.88;5014835;28;20041;-74
2022/08/12 02:53:36;;;;;;;9.20;8.30;;;;;;;14.27;57.25;101139.22;5014947;28;20037;-75
2022/08/12 02:56:04;;;;;;;9.65;8.43;;;;;;;14.21;57.41;101139.31;5014873;28;20038;-75
2022/08/12 02:58:31;;;;;;;9.60;8.82;;;;;;;14.13;57.50;101141.19;5014848;28;20038;-74
2022/08/12 03:01:02;;;;;;;9.93;9.02;;;;;;;14.11;57.69;101135.88;5014626;28;20113;-75
2022/08/12 03:03:32;;;;;;;9.30;8.38;;;;;;;14.11;57.97;101137.66;5014756;28;20511;-74
2022/08/12 03:06:05;;;;;;;8.90;8.13;;;;;;;14.03;58.65;101135.09;5014707;28;20480;-75
2022/08/12 03:08:42;;;;;;;9.73;8.85;;;;;;;13.99;59.07;101134.25;5012009;28;20428;-74
2022/08/12 03:11:15;;;;;;;9.80;9.00;;;;;;;13.97;58.84;101130.72;5012230;28;20503;-74
2022/08/12 03:13:45;;;;;;;9.90;8.98;;;;;;;13.95;58.61;101127.19;4993849;28;20081;-75
2022/08/12 03:16:11;;;;;;;9.52;8.73;;;;;;;13.91;58.97;101121.94;5014548;28;20527;-75
2022/08/12 03:18:40;;;;;;;9.60;8.73;;;;;;;13.88;58.92;101130.81;5014336;28;20038;-75
2022/08/12 03:21:05;;;;;;;9.52;8.73;;;;;;;13.81;59.10;101130.00;5010557;28;20123;-75
2022/08/12 03:23:31;;;;;;;10.48;9.48;;;;;;;13.84;59.12;101131.75;5014413;28;20038;-75
2022/08/12 03:26:00;;;;;;;8.98;8.10;;;;;;;13.87;59.12;101136.16;5014363;28;20030;-74
2022/08/12 03:31:12;;;;;;;10.85;9.70;;;;;;;13.80;59.79;101148.56;5012123;28;20045;-74
2022/08/12 03:33:41;;;;;;;10.88;9.88;;;;;;;13.88;60.14;101146.72;5014320;28;20037;-74
2022/08/12 03:36:08;;;;;;;11.23;8.85;;;;;;;13.87;59.69;101134.38;5014105;28;20092;-75
2022/08/12 03:38:36;;;;;;;9.48;8.43;;;;;;;13.84;59.32;101149.44;5013850;28;20462;-75
2022/08/12 04:01:00;;;;;;;9.98;8.48;;;;;;;13.52;60.45;101169.19;5013037;28;20049;-74
2022/08/12 04:06:09;;;;;;;10.32;9.25;;;;;;;13.52;61.67;101159.47;5013670;28;20129;-74
2022/08/12 04:08:35;;;;;;;10.43;8.98;;;;;;;13.53;62.18;101168.28;5013426;28;20120;-75
2022/08/12 04:13:47;;;;;;;11.10;9.20;;;;;;;13.64;60.95;101162.88;5013505;28;20045;-74
2022/08/12 04:16:14;;;;;;;10.40;8.27;;;;;;;13.65;61.14;101160.22;5013498;28;20125;-75
2022/08/12 04:18:41;;;;;;;10.00;9.18;;;;;;;13.70;60.52;101168.13;5013001;28;20030;-74
2022/08/12 04:21:09;;;;;;;9.88;8.98;;;;;;;13.76;60.77;101171.63;5012272;28;20037;-74
2022/08/12 04:23:38;;;;;;;10.30;9.30;;;;;;;13.82;60.58;101160.94;5012889;28;20042;-74
2022/08/12 04:26:06;;;;;;;9.55;8.68;;;;;;;13.87;59.97;101166.22;5012003;28;20037;-73
2022/08/12 04:28:32;;;;;;;9.52;8.73;;;;;;;13.90;60.20;101162.66;5013034;28;20080;-74
2022/08/12 04:30:57;;;;;;;9.45;8.75;;;;;;;13.98;59.66;101164.31;5013010;28;20054;-74
2022/08/12 04:33:23;;;;;;;11.57;9.18;;;;;;;14.03;60.68;101167.81;5012843;28;20690;-74
2022/08/12 04:35:48;;;;;;;11.40;8.63;;;;;;;14.08;60.54;101166.91;4995295;28;20552;-74
2022/08/12 04:38:15;;;;;;;12.75;9.57;;;;;;;14.19;60.45;101162.34;5011414;28;20033;-74
2022/08/12 04:40:41;;;;;;;11.55;10.07;;;;;;;14.35;59.72;101169.22;5011463;28;20060;-74
2022/08/12 04:43:08;;;;;;;13.52;11.30;;;;;;;14.53;59.39;101162.84;4993707;28;20492;-74
2022/08/12 04:45:36;;;;;;;11.60;10.57;;;;;;;14.67;59.15;101168.00;5012709;28;20447;-74
2022/08/12 04:48:03;;;;;;;12.50;11.40;;;;;;;14.79;59.12;101169.63;5010493;28;20034;-73
2022/08/12 04:50:29;;;;;;;11.32;10.25;;;;;;;14.90;58.63;101168.56;5007972;28;20037;-74
2022/08/12 04:52:59;;;;;;;11.25;10.27;;;;;;;15.03;58.92;101163.09;5008955;28;20109;-73
2022/08/12 04:55:25;;;;;;;13.73;12.30;;;;;;;15.14;58.83;101161.13;5012061;28;20116;-74
2022/08/12 04:57:52;;;;;;;14.48;13.20;;;;;;;15.25;58.97;101161.00;4990651;28;20041;-74
2022/08/12 05:00:17;;;;;;;19.33;17.33;;;;;;;15.37;58.70;101162.56;5010596;28;20045;-75
2022/08/12 05:02:43;;;;;;;15.65;14.15;;;;;;;15.46;58.83;101165.09;5011977;28;20049;-74
2022/08/12 05:05:19;;;;;;;12.00;10.88;;;;;;;15.58;58.74;101162.22;5012534;28;20026;-74
2022/08/12 05:07:49;;;;;;;13.18;12.07;;;;;;;15.65;58.77;101163.88;5012346;28;20030;-74
2022/08/12 05:10:15;;;;;;;13.95;10.45;;;;;;;15.74;58.36;101174.38;5008763;28;20443;-75
2022/08/12 05:15:14;;;;;;;10.20;9.30;;;;;;;15.71;58.93;101169.13;4990642;28;20475;-75
2022/08/12 05:17:40;;;;;;;10.23;9.32;;;;;;;15.76;58.88;101172.56;4992612;28;20562;-75
2022/08/12 05:20:10;;;;;;;10.13;9.25;;;;;;;15.83;58.88;101168.03;4988901;28;20041;-75
2022/08/12 05:22:37;;;;;;;15.75;10.15;;;;;;;15.90;59.29;101169.69;4991294;28;20045;-75
2022/08/12 05:25:03;;;;;;;10.30;9.23;;;;;;;16.01;59.69;101177.47;4992796;28;20046;-75
2022/08/12 05:27:29;;;;;;;11.63;10.18;;;;;;;16.10;59.64;101176.44;4992425;28;20053;-75
2022/08/12 05:29:54;;;;;;;11.13;10.23;;;;;;;16.24;59.02;101173.50;4992425;28;20120;-75
2022/08/12 05:32:19;;;;;;;10.85;9.77;;;;;;;16.33;59.54;101179.53;4992277;28;20030;-75
2022/08/12 05:34:49;;;;;;;10.43;9.52;;;;;;;16.45;59.41;101183.72;4991568;28;20038;-75
2022/08/12 05:37:15;;;;;;;13.05;9.40;;;;;;;16.55;59.42;101185.28;4989862;28;20502;-76
2022/08/12 05:39:40;;;;;;;13.85;9.82;;;;;;;16.71;58.97;101184.97;4992011;28;20097;-75
2022/08/12 05:42:09;;;;;;;13.63;10.00;;;;;;;16.88;58.64;101184.66;4991773;28;20089;-75
2022/08/12 05:44:35;;;;;;;10.85;9.77;;;;;;;17.04;57.92;101189.63;4988599;28;20092;-75
2022/08/12 05:47:00;;;;;;;11.65;10.45;;;;;;;17.21;57.79;101196.34;4990911;28;20042;-75
2022/08/12 05:49:28;;;;;;;12.50;11.30;;;;;;;17.38;57.58;101185.28;4992058;28;20057;-75
2022/08/12 05:51:54;;;;;;;14.32;11.27;;;;;;;17.52;57.43;101192.03;4990894;28;20042;-74
2022/08/12 05:54:19;;;;;;;11.52;10.45;;;;;;;17.67;56.99;101189.91;4990162;28;20061;-73
2022/08/12 05:56:44;;;;;;;10.80;9.77;;;;;;;17.79;56.92;101192.31;4989795;28;20057;-73
2022/08/12 05:59:11;;;;;;;12.43;10.85;;;;;;;17.92;57.20;101196.44;4989727;28;20543;-73
2022/08/12 06:01:37;;;;;;;10.50;9.60;;;;;;;18.04;56.86;101197.00;4989044;28;20030;-73
2022/08/12 06:04:03;;;;;;;11.15;10.20;;;;;;;18.15;56.48;101193.13;4991286;28;20034;-73
2022/08/12 06:06:33;;;;;;;11.32;10.43;;;;;;;18.29;56.42;101198.13;4991182;28;20029;-73
2022/08/12 06:08:59;;;;;;;12.25;11.02;;;;;;;18.44;55.94;101202.13;4991439;28;20606;-73
2022/08/12 06:11:24;;;;;;;11.70;10.57;;;;;;;18.58;55.96;101201.75;4991260;28;20042;-73
2022/08/12 06:13:52;;;;;;;12.07;10.77;;;;;;;18.69;55.50;101205.00;4990678;28;20038;-73
2022/08/12 06:16:20;;;;;;;12.52;9.18;;;;;;;18.82;55.06;101203.75;4991721;28;20053;-73
2022/08/12 06:18:45;;;;;;;13.05;10.32;;;;;;;18.95;54.90;101201.59;4991742;28;20054;-73
2022/08/12 06:21:14;;;;;;;14.70;10.65;;;;;;;19.10;54.04;101200.25;4990632;28;20034;-73
2022/08/12 06:23:41;;;;;;;11.20;10.07;;;;;;;19.24;53.82;101202.47;4991405;28;20038;-73
2022/08/12 06:26:11;;;;;;;10.88;9.98;;;;;;;19.38;53.47;101202.03;4990211;28;20038;-73
2022/08/12 06:28:37;;;;;;;16.75;9.52;;;;;;;19.50;53.16;101198.97;4989852;28;20038;-73
2022/08/12 06:31:05;;;;;;;10.88;9.98;;;;;;;19.60;53.03;101199.56;4990058;28;20489;-73
2022/08/12 06:33:31;;;;;;;10.68;9.57;;;;;;;19.70;52.36;101201.91;4989917;28;20513;-73
2022/08/12 06:35:56;;;;;;;14.65;9.27;;;;;;;19.81;52.82;101206.03;4989876;28;20057;-74
2022/08/12 06:38:26;;;;;;;12.18;9.48;;;;;;;19.93;52.36;101202.91;4991378;28;20047;-73
2022/08/12 06:43:40;;;;;;;10.23;9.32;;;;;;;20.17;52.06;101208.34;4990103;28;20038;-73
2022/08/12 06:46:05;;;;;;;13.02;8.93;;;;;;;20.21;51.51;101202.84;4989890;28;20030;-73
2022/08/12 06:48:31;;;;;;;11.95;9.20;;;;;;;20.38;51.63;101201.34;4989445;28;20447;-73
2022/08/12 06:50:58;;;;;;;10.48;9.57;;;;;;;20.49;51.52;101199.19;4989142;28;20135;-73
2022/08/12 06:53:25;;;;;;;12.82;9.60;;;;;;;20.66;50.63;101203.94;4988744;28;20031;-74
2022/08/12 06:55:53;;;;;;;16.23;9.80;;;;;;;20.78;50.62;101203.47;4989128;28;20042;-73
2022/08/12 06:58:19;;;;;;;9.57;8.77;;;;;;;20.89;50.51;101203.94;4989812;28;20509;-73
2022/08/12 07:00:48;;;;;;;14.50;12.68;;;;;;;21.05;49.95;101201.53;4987787;28;20044;-73
2022/08/12 07:03:24;;;;;;;12.05;10.95;;;;;;;21.20;49.87;101198.25;4991050;28;20115;-74
2022/08/12 07:05:50;;;;;;;26.63;13.05;;;;;;;21.32;49.47;101196.88;4991586;28;20039;-73
2022/08/12 07:08:15;;;;;;;11.13;9.73;;;;;;;21.43;49.27;101201.81;4991370;28;20049;-73
2022/08/12 07:10:52;;;;;;;15.90;11.15;;;;;;;21.58;48.40;101200.34;4990385;28;20053;-73
2022/08/12 07:13:19;;;;;;;12.60;11.25;;;;;;;21.70;48.21;101205.22;4989544;28;20708;-73
2022/08/12 07:15:44;;;;;;;13.55;12.55;;;;;;;21.83;47.48;101195.69;4991169;28;20074;-73
2022/08/12 07:18:18;;;;;;;19.52;13.52;;;;;;;21.89;47.39;101198.09;4991231;28;20072;-74
2022/08/12 07:20:46;;;;;;;14.82;13.30;;;;;;;22.06;47.09;101193.81;4991183;28;20073;-73
2022/08/12 07:23:11;;;;;;;16.95;15.20;;;;;;;22.20;46.48;101195.94;4987685;28;20125;-74
2022/08/12 07:25:38;;;;;;;24.40;12.90;;;;;;;22.36;45.90;101193.44;4992188;28;20118;-74
2022/08/12 07:28:12;;;;;;;27.58;14.05;;;;;;;22.48;45.94;101196.47;4994499;28;20124;-74
2022/08/12 07:30:40;;;;;;;14.55;13.05;;;;;;;22.63;45.53;101192.19;4993332;28;20038;-74
2022/08/12 07:33:07;;;;;;;13.73;12.75;;;;;;;22.74;45.15;101189.91;4994306;28;20081;-74
2022/08/12 07:35:36;;;;;;;14.48;13.38;;;;;;;22.88;44.55;101191.06;4994629;28;20030;-74
2022/08/12 07:38:02;;;;;;;14.02;12.57;;;;;;;23.01;43.74;101199.47;4994565;28;20121;-73
2022/08/12 07:40:31;;;;;;;12.80;12.00;;;;;;;23.13;43.95;101202.47;4994485;28;20125;-74
2022/08/12 07:42:56;;;;;;;13.10;12.05;;;;;;;23.17;44.02;101204.03;4994197;28;20046;-74
2022/08/12 07:45:23;;;;;;;14.75;13.30;;;;;;;23.13;43.39;101194.38;4994445;28;20041;-73
2022/08/12 07:47:50;;;;;;;13.50;12.20;;;;;;;23.06;43.44;101203.69;4994396;28;20034;-74
2022/08/12 07:50:17;;;;;;;12.40;11.63;;;;;;;23.00;43.35;101201.25;4993043;28;20038;-74
2022/08/12 07:52:45;;;;;;;13.35;12.38;;;;;;;22.91;43.26;101199.84;4993897;28;20121;-74
2022/08/12 07:55:12;;;;;;;12.45;11.52;;;;;;;22.86;43.74;101201.03;4993965;28;20038;-74
2022/08/12 07:57:56;;;;;;;13.23;12.43;;;;;;;22.79;43.20;101208.50;4993701;28;20046;-74
2022/08/12 08:00:22;;;;;;;13.98;13.07;;;;;;;22.80;43.20;101199.50;4993730;28;20042;-74
2022/08/12 08:02:48;;;;;;;13.25;12.02;;;;;;;22.87;43.59;101205.44;4993670;28;20469;-74
2022/08/12 08:05:14;;;;;;;14.48;13.48;;;;;;;23.02;43.27;101212.84;4993644;28;20068;-74
2022/08/12 08:07:41;;;;;;;12.90;12.10;;;;;;;23.07;42.98;101208.13;4993366;28;20473;-74
2022/08/12 08:10:09;;;;;;;14.13;13.15;;;;;;;23.20;42.76;101213.78;4993900;28;20034;-74
2022/08/12 08:15:26;;;;;;;15.57;14.48;;;;;;;23.55;42.07;101198.59;4991692;28;20053;-74
2022/08/12 08:17:58;;;;;;;;;;;;;;;23.66;41.36;101199.88;4993569;28;20038;-74
2022/08/12 08:20:28;;;;;;;16.90;15.38;;;;;;;23.83;41.35;101208.88;4992783;28;19913;-74
2022/08/12 08:22:57;;;;;;;15.63;14.63;;;;;;;24.09;41.03;101201.28;4989326;28;20030;-74
2022/08/12 08:25:30;;;;;;;14.88;13.70;;;;;;;24.23;40.15;101195.16;4993650;28;20113;-74
2022/08/12 08:27:56;;;;;;;15.32;14.05;;;;;;;24.31;40.10;101192.06;4993511;28;20038;-74
2022/08/12 08:30:22;;;;;;;15.13;13.75;;;;;;;24.44;40.09;101194.06;4993644;28;20041;-74
2022/08/12 08:32:48;;;;;;;14.90;13.57;;;;;;;24.54;39.37;101189.03;4992986;28;20043;-74
2022/08/12 08:35:21;;;;;;;13.18;12.27;;;;;;;24.59;39.28;101192.34;4990164;28;20038;-74
2022/08/12 08:37:47;;;;;;;14.25;13.27;;;;;;;24.69;39.14;101184.63;4992790;28;20046;-74
2022/08/12 08:42:56;;;;;;;15.23;14.23;;;;;;;24.89;39.03;101180.84;4989675;28;20045;-74
2022/08/12 08:45:22;;;;;;;14.88;13.85;;;;;;;25.03;38.88;101177.38;4993148;28;20042;-74
2022/08/12 08:47:48;;;;;;;14.43;13.50;;;;;;;25.06;38.57;101180.75;4992102;28;20046;-74
2022/08/12 08:50:15;;;;;;;19.10;14.68;;;;;;;25.09;38.54;101185.13;4992309;28;20074;-73
2022/08/12 08:52:44;;;;;;;15.27;14.32;;;;;;;25.15;37.83;101179.34;4991943;28;20562;-74
2022/08/12 08:55:12;;;;;;;16.10;14.50;;;;;;;25.19;38.18;101180.97;4992134;28;20078;-74
2022/08/12 08:57:43;;;;;;;14.32;13.32;;;;;;;25.28;37.77;101180.47;4991485;28;20073;-74
2022/08/12 09:00:14;;;;;;;14.73;13.82;;;;;;;25.38;37.45;101179.91;4992931;28;20038;-74
2022/08/12 09:02:39;;;;;;;14.93;13.95;;;;;;;25.41;37.87;101168.91;4989727;28;20510;-74
2022/08/12 09:05:05;;;;;;;15.80;14.85;;;;;;;25.53;37.23;101168.22;4992796;28;20042;-74
2022/08/12 09:07:30;;;;;;;18.90;17.80;;;;;;;25.59;36.70;101167.84;4992935;28;20113;-74
2022/08/12 09:09:56;;;;;;;14.75;13.77;;;;;;;25.68;36.42;101164.59;4992195;28;20046;-74
2022/08/12 09:15:07;;;;;;;15.93;14.70;;;;;;;25.88;35.20;101166.13;4991289;28;20089;-74
2022/08/12 09:17:33;;;;;;;14.70;13.40;;;;;;;25.97;35.11;101167.44;4992493;28;20038;-74
2022/08/12 09:19:59;;;;;;;15.30;13.98;;;;;;;26.01;35.26;101175.25;4990976;28;20489;-74
2022/08/12 09:22:24;;;;;;;13.82;12.95;;;;;;;26.06;35.09;101174.09;4992492;28;20049;-74
2022/08/12 09:24:50;;;;;;;15.73;14.73;;;;;;;26.16;35.10;101161.75;4992438;28;20121;-74
2022/08/12 09:27:16;;;;;;;15.23;14.13;;;;;;;26.27;35.19;101163.81;4992561;28;20042;-74
2022/08/12 09:29:42;;;;;;;14.35;13.40;;;;;;;26.34;34.81;101165.16;4988640;28;20412;-74
2022/08/12 09:32:08;;;;;;;16.75;15.60;;;;;;;26.19;35.13;101159.72;4992099;28;20026;-74
2022/08/12 09:34:35;;;;;;;15.30;14.30;;;;;;;26.42;35.38;101160.16;4988315;28;20072;-74
2022/08/12 09:37:01;;;;;;;14.35;13.35;;;;;;;26.59;35.15;101160.00;4992265;28;20126;-74
2022/08/12 09:39:27;;;;;;;14.57;13.63;;;;;;;26.76;35.13;101158.91;4992279;28;20574;-74
2022/08/12 09:47:21;;;;;;;14.63;13.73;;;;;;;26.98;33.95;101149.38;4991628;28;20041;-74
2022/08/12 09:49:48;;;;;;;14.73;13.48;;;;;;;27.07;33.75;101146.09;4989231;28;20122;-74
2022/08/12 09:52:14;;;;;;;15.65;14.35;;;;;;;27.19;33.52;101147.13;4991694;28;20038;-74
2022/08/12 09:54:40;;;;;;;15.50;14.55;;;;;;;27.31;33.28;101144.50;4987169;28;20409;-74
2022/08/12 09:57:09;;;;;;;15.40;13.90;;;;;;;27.44;33.23;101143.69;4991850;28;20045;-74
2022/08/12 09:59:34;;;;;;;15.15;14.25;;;;;;;27.43;33.00;101137.38;4991894;28;20141;-74
2022/08/12 10:01:59;;;;;;;14.55;13.43;;;;;;;27.52;33.00;101127.75;4991655;28;20516;-74
2022/08/12 10:04:25;;;;;;;14.63;13.73;;;;;;;27.58;33.16;101130.03;4990910;28;20030;-74
2022/08/12 10:06:50;;;;;;;15.35;14.55;;;;;;;27.64;32.39;101131.47;4991907;28;20388;-74
2022/08/12 10:09:15;;;;;;;14.88;14.07;;;;;;;27.66;32.59;101121.38;4991410;28;20485;-74
2022/08/12 10:14:24;;;;;;;14.48;13.68;;;;;;;27.91;31.74;101113.31;4990377;28;20053;-73
2022/08/12 10:16:50;;;;;;;14.52;13.52;;;;;;;27.95;31.75;101098.56;4989972;28;20030;-73
2022/08/12 10:19:17;;;;;;;14.38;13.52;;;;;;;28.08;31.76;101103.13;4989893;28;20046;-74
2022/08/12 10:21:43;;;;;;;13.93;12.90;;;;;;;28.16;32.20;101101.63;4989363;28;20072;-74
2022/08/12 10:24:09;;;;;;;14.27;13.32;;;;;;;28.22;31.23;101094.00;4989519;28;20440;-74
2022/08/12 10:29:38;;;;;;;22.40;15.02;;;;;;;28.22;30.48;101088.56;4990593;28;20113;-74
2022/08/12 10:32:07;;;;;;;16.33;15.32;;;;;;;28.52;30.11;101101.81;4990225;28;20077;-74
2022/08/12 10:34:33;;;;;;;14.88;13.95;;;;;;;28.67;30.28;101092.56;4991076;28;20036;-74
2022/08/12 10:37:00;;;;;;;16.20;14.98;;;;;;;28.92;29.58;101091.59;4991211;28;20467;-73
2022/08/12 10:39:35;;;;;;;16.45;15.35;;;;;;;29.34;29.15;101088.50;4991423;28;20132;-74
2022/08/12 10:44:52;;;;;;;;;;;;;;;30.20;27.78;101081.81;4988815;28;20043;-74
2022/08/12 10:47:20;;;;;;;16.88;15.43;;;;;;;30.53;26.50;101079.13;4991378;28;19921;-74
2022/08/12 10:49:48;;;;;;;16.35;15.05;;;;;;;30.58;26.09;101074.19;4991393;28;20122;-73
2022/08/12 10:52:14;;;;;;;16.35;15.13;;;;;;;30.62;26.51;101065.75;4991091;28;20042;-74
2022/08/12 10:54:41;;;;;;;17.00;15.98;;;;;;;30.75;26.42;101061.00;4990842;28;20408;-74
2022/08/12 10:57:07;;;;;;;15.95;14.77;;;;;;;30.92;26.04;101060.53;4990744;28;20038;-73
2022/08/12 10:59:33;;;;;;;17.73;16.50;;;;;;;30.90;26.03;101058.91;4991080;28;20457;-74
2022/08/12 11:02:00;;;;;;;18.10;16.65;;;;;;;30.90;26.71;101058.91;4994390;28;20073;-75
2022/08/12 11:04:28;;;;;;;14.80;13.95;;;;;;;30.92;26.15;101046.03;4995041;28;20516;-74
2022/08/12 11:06:54;;;;;;;17.83;16.40;;;;;;;31.10;26.18;101038.13;4995128;28;20030;-74
2022/08/12 11:09:29;;;;;;;17.17;16.08;;;;;;;31.25;25.66;101042.28;4994578;28;20037;-75
2022/08/12 11:11:56;;;;;;;14.32;13.43;;;;;;;31.44;25.45;101037.03;4994557;28;20046;-75
2022/08/12 11:14:31;;;;;;;16.95;15.85;;;;;;;31.84;25.88;101032.69;4994904;28;20596;-75
2022/08/12 11:17:02;;;;;;;15.95;14.73;;;;;;;31.94;25.10;101030.03;4993494;28;20052;-74
2022/08/12 11:19:28;;;;;;;17.55;16.33;;;;;;;32.32;25.23;101032.06;4989418;28;20073;-74
2022/08/12 11:21:55;;;;;;;15.15;14.05;;;;;;;32.63;25.16;101024.72;4993731;28;20523;-73
2022/08/12 11:24:21;;;;;;;16.05;15.15;;;;;;;32.71;24.60;101024.00;4993644;28;20030;-73
2022/08/12 11:26:48;;;;;;;16.25;15.30;;;;;;;32.53;24.29;101018.38;4994299;28;20500;-73
2022/08/12 11:29:15;;;;;;;17.38;16.08;;;;;;;32.30;24.48;101024.03;4994143;28;20054;-74
2022/08/12 11:31:40;;;;;;;16.55;15.35;;;;;;;32.37;24.54;101023.47;4990194;28;20056;-73
2022/08/12 11:34:05;;;;;;;17.13;15.75;;;;;;;32.44;23.74;101021.91;4994455;28;20046;-73
2022/08/12 11:36:31;;;;;;;16.42;15.52;;;;;;;32.62;24.39;101012.06;4994687;28;20076;-73
2022/08/12 11:38:56;;;;;;;18.15;16.88;;;;;;;33.00;23.32;101007.63;4994228;28;20117;-73
2022/08/12 11:41:22;;;;;;;19.33;18.05;;;;;;;33.38;23.64;101005.94;4994323;28;20069;-73
2022/08/12 11:43:47;;;;;;;16.75;15.85;;;;;;;32.62;23.03;101011.19;4994586;28;20092;-73
2022/08/12 11:46:13;;;;;;;16.70;15.70;;;;;;;32.21;24.07;101016.66;4994539;28;20042;-74
2022/08/12 11:48:39;;;;;;;16.63;15.63;;;;;;;31.95;24.78;101012.66;4994224;28;20073;-73
2022/08/12 11:51:06;;;;;;;20.60;19.17;;;;;;;32.21;24.05;101002.16;4994336;28;20471;-74
2022/08/12 11:53:32;;;;;;;20.38;18.88;;;;;;;32.59;24.35;101000.53;4994234;28;20034;-74
2022/08/12 11:55:57;;;;;;;20.05;18.90;;;;;;;33.07;23.68;101006.09;4994257;28;20092;-73
2022/08/12 11:58:22;;;;;;;17.38;16.30;;;;;;;32.86;23.13;101002.59;4994102;28;20536;-74
2022/08/12 12:00:48;;;;;;;17.25;16.25;;;;;;;32.59;23.99;101004.13;4994157;28;20068;-73
2022/08/12 12:03:13;;;;;;;20.83;19.63;;;;;;;32.95;23.17;100991.66;4993787;28;20062;-74
2022/08/12 12:05:38;;;;;;;19.08;17.90;;;;;;;33.43;23.29;100994.53;4993986;28;20037;-74
2022/08/12 12:08:04;;;;;;;21.65;20.40;;;;;;;33.65;22.67;100993.38;4994055;28;20042;-74
2022/08/12 12:10:29;;;;;;;27.23;25.70;;;;;;;33.57;22.29;100988.66;4993691;28;20039;-73
2022/08/12 12:12:54;;;;;;;21.92;20.52;;;;;;;33.96;22.22;100994.00;4992561;28;20053;-74
2022/08/12 12:15:20;;;;;;;21.27;20.10;;;;;;;34.22;21.52;100996.94;4993676;28;20038;-72
2022/08/12 12:17:45;;;;;;;22.27;21.08;;;;;;;34.66;21.32;100994.38;4993687;28;20038;-73
2022/08/12 12:20:11;;;;;;;17.42;16.33;;;;;;;34.80;21.24;101003.97;4993757;28;20038;-74
2022/08/12 12:22:38;;;;;;;16.48;15.48;;;;;;;34.38;21.33;100996.28;4993568;28;20049;-73
2022/08/12 12:25:04;;;;;;;23.83;22.35;;;;;;;34.73;21.52;100995.47;4993667;28;20054;-73
2022/08/12 12:27:49;;;;;;;1999.90;999.90;;;;;;;35.22;20.59;100987.75;4993552;28;20046;-74
2022/08/12 12:30:15;;;;;;;20.02;18.83;;;;;;;35.76;20.55;100977.53;4991421;28;20133;-73
2022/08/12 12:32:40;;;;;;;1502.97;752.83;;;;;;;36.11;20.06;100983.91;4993110;28;20133;-73
2022/08/12 12:35:06;;;;;;;1999.90;999.90;;;;;;;36.21;20.26;100986.53;4993504;28;20069;-74
2022/08/12 12:37:32;;;;;;;1999.90;999.90;;;;;;;36.56;19.42;100982.69;4989795;28;20093;-74
2022/08/12 12:39:57;;;;;;;1999.90;999.90;;;;;;;36.79;19.21;100974.69;4993476;28;20054;-74
2022/08/12 12:42:22;;;;;;;1999.90;999.90;;;;;;;36.91;19.08;100971.59;4993272;28;20042;-73
2022/08/12 12:44:48;;;;;;;1999.90;999.90;;;;;;;36.90;19.07;100969.88;4993208;28;20084;-74
2022/08/12 12:47:15;;;;;;;1999.90;999.90;;;;;;;37.45;18.38;100972.78;4992793;28;20117;-74
2022/08/12 12:49:40;;;;;;;1999.90;999.90;;;;;;;37.44;18.10;100976.59;4993102;28;20061;-73
2022/08/12 12:52:06;;;;;;;1999.90;999.90;;;;;;;37.82;18.08;100976.88;4993083;28;20512;-74
2022/08/12 12:54:31;;;;;;;18.10;16.80;;;;;;;37.22;19.00;100974.53;4993124;28;20053;-74
2022/08/12 12:56:57;;;;;;;1999.90;999.90;;;;;;;37.78;18.04;100964.47;4993164;28;20477;-74
2022/08/12 12:59:22;;;;;;;1999.90;999.90;;;;;;;37.69;17.50;100963.66;4993000;28;20052;-74
2022/08/12 13:01:48;;;;;;;1999.90;999.90;;;;;;;37.97;17.60;100976.19;4992867;28;20157;-74
2022/08/12 13:04:13;;;;;;;1999.90;999.90;;;;;;;38.15;17.58;100966.63;4992968;28;20034;-74
2022/08/12 13:06:40;;;;;;;1999.90;999.90;;;;;;;38.28;17.40;100962.41;4992811;28;20489;-74
2022/08/12 13:09:05;;;;;;;1999.90;999.90;;;;;;;38.50;17.15;100958.03;4992728;28;20046;-74
2022/08/12 13:11:31;;;;;;;1999.90;999.90;;;;;;;38.81;17.39;100955.22;4992234;28;20049;-74
2022/08/12 13:13:56;;;;;;;1999.90;999.90;;;;;;;38.98;16.46;100944.94;4991398;28;20500;-74